Monticello, IA

2:35 AM CDT on July 25, 2017 (GMT -0500)
Monticello Regional | | Change Station
Active Advisory: Flood Warning

Elev 846 ft 42.22 °N, 91.17 °W | Updated 20 minutes ago

Clear
Clear
61 °F
Feels Like 61 °F
N
6
Wind Variable Wind from ESE

Today
High -- | Low -- °F
--% Chance of Precip.
Yesterday
High -- | Low -- °F
Precip. -- in
Pressure 30.11 in
Visibility 10.0 miles
Clouds Clear
Dew Point 61 °F
Humidity 100%
Rainfall 0.00 in
Snow Depth Not available.
5:50 AM 8:30 PM
Waxing Crescent, 5% visible
METAR KMXO 250715Z AUTO 12005KT 10SM CLR 16/16 A3011 RMK AO2
Pressure 30.11 in
Visibility 10.0 miles
Clouds Clear
Dew Point 61 °F
Humidity 100%
Rainfall 0.00 in
Snow Depth Not available.
5:50 AM 8:30 PM
Waxing Crescent, 5% visible
METAR KMXO 250715Z AUTO 12005KT 10SM CLR 16/16 A3011 RMK AO2

Get Your Daily Forecast Email!

Thanks for signing up!

Be on the lookout for a verification email in your inbox.

You'll start receiving severe weather alerts in your inbox..

×

10-Day Weather Forecast

Almanac

Astronomy

Jul. 25, 2017 Rise Set
Actual Time
Civil Twilight
Nautical Twilight
Astronomical Twilight
Moon
Length of Visible Light
Length of Day
Tomorrow will be .
, % of the Moon is Illuminated

Today's Extremes

State Highs State Lows

Community

WunderPhotos

Category 6

Welcome to Category 6. This is the collective home for Weather Underground's featured writeups by Dr. Jeff Masters (right), Bob Henson (left), Chris Burt, and other regular contributors.

Nearby

Air Quality

  Air Quality AQ Index Pollutant
Not available.

Snow Depth

Station Depth Elevation

Earthquake Activity

City Distance Mag. Time & Date
Minimum magnitude displayed is 2.5.

Coastal Water Temperatures

Place Temperature

Stations

Nearby Weather Stations

Station Location Temp. Windchill Dew Point Humidity Wind Precip. Elev Updated Type
                   

Watches & Warnings

Flood Warning
Issued: 9:20 PM CDT Jul. 24, 2017 – National Weather Service

... Flood Warning now in effect until Sunday morning...

The Flood Warning continues for
the wapsipinicon river near Anamosa Shaw Rd.
* Until Sunday morning.
* At 8:15 PM Monday the stage was 11.1 feet and rising.
* Flood stage is 14.5 feet.
* No flooding is occurring and moderate flooding is forecast.
* Forecast... rise above flood stage Tuesday and continue rising to
20.0 feet Wednesday evening. The river will fall below flood stage
Sunday morning.
* Impact... at 18.8 feet, Landis Road is closed.


Lat... Lon 4226 9152 4200 9090 4185 9090 4219 9160